sensor_id;sensor_type;location;lat;lon;timestamp;P1;durP1;ratioP1;P2;durP2;ratioP2
6785;SDS011;3430;51.192;6.048;2022-09-09T00:00:22;1.57;;;1.47;;
6785;SDS011;3430;51.192;6.048;2022-09-09T00:02:50;1.67;;;1.40;;
6785;SDS011;3430;51.192;6.048;2022-09-09T00:05:23;1.07;;;1.03;;
6785;SDS011;3430;51.192;6.048;2022-09-09T00:07:52;6.30;;;1.83;;
6785;SDS011;3430;51.192;6.048;2022-09-09T00:10:39;1.50;;;1.10;;
6785;SDS011;3430;51.192;6.048;2022-09-09T00:13:22;2.93;;;1.30;;
6785;SDS011;3430;51.192;6.048;2022-09-09T00:19:07;0.90;;;0.90;;
6785;SDS011;3430;51.192;6.048;2022-09-09T00:21:13;2.77;;;1.50;;
6785;SDS011;3430;51.192;6.048;2022-09-09T00:23:51;2.50;;;1.23;;
6785;SDS011;3430;51.192;6.048;2022-09-09T00:26:23;1.97;;;1.10;;
6785;SDS011;3430;51.192;6.048;2022-09-09T00:31:30;1.83;;;1.10;;
6785;SDS011;3430;51.192;6.048;2022-09-09T00:33:58;3.07;;;1.23;;
6785;SDS011;3430;51.192;6.048;2022-09-09T00:36:27;1.77;;;1.00;;
6785;SDS011;3430;51.192;6.048;2022-09-09T00:38:58;1.47;;;1.03;;
6785;SDS011;3430;51.192;6.048;2022-09-09T00:47:04;0.97;;;0.90;;
6785;SDS011;3430;51.192;6.048;2022-09-09T00:49:54;1.20;;;1.00;;
6785;SDS011;3430;51.192;6.048;2022-09-09T00:52:36;2.07;;;1.40;;
6785;SDS011;3430;51.192;6.048;2022-09-09T00:57:36;1.47;;;1.37;;
6785;SDS011;3430;51.192;6.048;2022-09-09T01:00:16;0.97;;;0.90;;
6785;SDS011;3430;51.192;6.048;2022-09-09T01:02:52;5.67;;;1.30;;
6785;SDS011;3430;51.192;6.048;2022-09-09T01:08:05;2.23;;;1.30;;
6785;SDS011;3430;51.192;6.048;2022-09-09T01:13:13;1.87;;;1.40;;
6785;SDS011;3430;51.192;6.048;2022-09-09T01:15:39;1.00;;;0.90;;
6785;SDS011;3430;51.192;6.048;2022-09-09T01:18:10;1.73;;;1.00;;
6785;SDS011;3430;51.192;6.048;2022-09-09T01:23:38;1.63;;;1.00;;
6785;SDS011;3430;51.192;6.048;2022-09-09T01:28:47;2.30;;;1.10;;
6785;SDS011;3430;51.192;6.048;2022-09-09T01:31:23;1.63;;;1.10;;
6785;SDS011;3430;51.192;6.048;2022-09-09T01:33:51;2.03;;;1.10;;
6785;SDS011;3430;51.192;6.048;2022-09-09T01:36:21;1.10;;;1.00;;
6785;SDS011;3430;51.192;6.048;2022-09-09T01:38:49;4.37;;;1.00;;
6785;SDS011;3430;51.192;6.048;2022-09-09T01:41:15;1.30;;;1.20;;
6785;SDS011;3430;51.192;6.048;2022-09-09T01:43:40;3.53;;;1.20;;
6785;SDS011;3430;51.192;6.048;2022-09-09T01:46:05;2.00;;;1.20;;
6785;SDS011;3430;51.192;6.048;2022-09-09T01:48:31;2.40;;;1.37;;
6785;SDS011;3430;51.192;6.048;2022-09-09T01:50:56;2.70;;;1.10;;
6785;SDS011;3430;51.192;6.048;2022-09-09T01:53:22;1.80;;;1.30;;
6785;SDS011;3430;51.192;6.048;2022-09-09T02:01:06;1.27;;;1.17;;
6785;SDS011;3430;51.192;6.048;2022-09-09T02:03:33;1.20;;;1.10;;
6785;SDS011;3430;51.192;6.048;2022-09-09T02:08:33;1.63;;;1.30;;
6785;SDS011;3430;51.192;6.048;2022-09-09T02:13:26;1.63;;;1.47;;
6785;SDS011;3430;51.192;6.048;2022-09-09T02:16:00;2.27;;;1.50;;
6785;SDS011;3430;51.192;6.048;2022-09-09T02:18:28;3.60;;;1.50;;
6785;SDS011;3430;51.192;6.048;2022-09-09T02:20:55;2.10;;;1.80;;
6785;SDS011;3430;51.192;6.048;2022-09-09T02:23:22;2.50;;;1.53;;
6785;SDS011;3430;51.192;6.048;2022-09-09T02:25:48;4.57;;;1.67;;
6785;SDS011;3430;51.192;6.048;2022-09-09T02:28:14;2.83;;;1.40;;
6785;SDS011;3430;51.192;6.048;2022-09-09T02:30:40;3.53;;;1.60;;
6785;SDS011;3430;51.192;6.048;2022-09-09T02:33:07;3.10;;;1.77;;
6785;SDS011;3430;51.192;6.048;2022-09-09T02:35:35;1.77;;;1.30;;
6785;SDS011;3430;51.192;6.048;2022-09-09T02:38:04;1.77;;;1.40;;
6785;SDS011;3430;51.192;6.048;2022-09-09T02:40:30;2.27;;;1.53;;
6785;SDS011;3430;51.192;6.048;2022-09-09T02:42:55;1.70;;;1.50;;
6785;SDS011;3430;51.192;6.048;2022-09-09T02:45:23;2.83;;;1.43;;
6785;SDS011;3430;51.192;6.048;2022-09-09T02:48:03;2.37;;;1.60;;
6785;SDS011;3430;51.192;6.048;2022-09-09T02:50:37;1.97;;;1.50;;
6785;SDS011;3430;51.192;6.048;2022-09-09T02:55:46;1.33;;;1.23;;
6785;SDS011;3430;51.192;6.048;2022-09-09T02:58:15;2.33;;;1.47;;
6785;SDS011;3430;51.192;6.048;2022-09-09T03:00:45;2.43;;;1.40;;
6785;SDS011;3430;51.192;6.048;2022-09-09T03:03:11;1.43;;;1.33;;
6785;SDS011;3430;51.192;6.048;2022-09-09T03:05:37;2.10;;;1.37;;
6785;SDS011;3430;51.192;6.048;2022-09-09T03:08:03;1.30;;;1.20;;
6785;SDS011;3430;51.192;6.048;2022-09-09T03:10:28;4.23;;;1.67;;
6785;SDS011;3430;51.192;6.048;2022-09-09T03:12:54;2.30;;;1.27;;
6785;SDS011;3430;51.192;6.048;2022-09-09T03:15:20;3.83;;;1.40;;
6785;SDS011;3430;51.192;6.048;2022-09-09T03:17:46;2.07;;;1.37;;
6785;SDS011;3430;51.192;6.048;2022-09-09T03:20:12;2.10;;;1.33;;
6785;SDS011;3430;51.192;6.048;2022-09-09T03:22:37;2.80;;;2.00;;
6785;SDS011;3430;51.192;6.048;2022-09-09T03:25:03;1.53;;;1.20;;
6785;SDS011;3430;51.192;6.048;2022-09-09T03:27:29;4.70;;;1.50;;
6785;SDS011;3430;51.192;6.048;2022-09-09T03:29:54;2.03;;;1.50;;
6785;SDS011;3430;51.192;6.048;2022-09-09T03:32:21;1.70;;;1.20;;
6785;SDS011;3430;51.192;6.048;2022-09-09T03:34:47;2.03;;;1.33;;
6785;SDS011;3430;51.192;6.048;2022-09-09T03:37:15;2.80;;;1.50;;
6785;SDS011;3430;51.192;6.048;2022-09-09T03:39:40;1.63;;;1.20;;
6785;SDS011;3430;51.192;6.048;2022-09-09T03:42:05;1.50;;;1.20;;
6785;SDS011;3430;51.192;6.048;2022-09-09T03:44:31;1.20;;;1.10;;
6785;SDS011;3430;51.192;6.048;2022-09-09T03:46:56;4.40;;;1.50;;
6785;SDS011;3430;51.192;6.048;2022-09-09T03:49:22;3.87;;;1.60;;
6785;SDS011;3430;51.192;6.048;2022-09-09T03:51:48;2.07;;;1.47;;
6785;SDS011;3430;51.192;6.048;2022-09-09T03:54:13;1.80;;;1.43;;
6785;SDS011;3430;51.192;6.048;2022-09-09T03:56:39;3.43;;;1.97;;
6785;SDS011;3430;51.192;6.048;2022-09-09T03:59:06;1.77;;;1.20;;
6785;SDS011;3430;51.192;6.048;2022-09-09T04:01:33;2.23;;;1.40;;
6785;SDS011;3430;51.192;6.048;2022-09-09T04:03:59;2.20;;;1.40;;
6785;SDS011;3430;51.192;6.048;2022-09-09T04:06:25;2.33;;;1.40;;
6785;SDS011;3430;51.192;6.048;2022-09-09T04:08:51;1.40;;;1.30;;
6785;SDS011;3430;51.192;6.048;2022-09-09T04:11:19;4.40;;;1.77;;
6785;SDS011;3430;51.192;6.048;2022-09-09T04:13:45;4.73;;;1.60;;
6785;SDS011;3430;51.192;6.048;2022-09-09T04:16:11;3.03;;;1.47;;
6785;SDS011;3430;51.192;6.048;2022-09-09T04:18:38;2.07;;;1.53;;
6785;SDS011;3430;51.192;6.048;2022-09-09T04:21:04;2.73;;;1.37;;
6785;SDS011;3430;51.192;6.048;2022-09-09T04:23:34;3.00;;;1.73;;
6785;SDS011;3430;51.192;6.048;2022-09-09T04:26:01;1.77;;;1.43;;
6785;SDS011;3430;51.192;6.048;2022-09-09T04:28:29;3.87;;;1.43;;
6785;SDS011;3430;51.192;6.048;2022-09-09T04:30:55;1.63;;;1.47;;
6785;SDS011;3430;51.192;6.048;2022-09-09T04:33:24;2.13;;;1.40;;
6785;SDS011;3430;51.192;6.048;2022-09-09T04:35:52;2.50;;;1.57;;
6785;SDS011;3430;51.192;6.048;2022-09-09T04:38:19;1.60;;;1.50;;
6785;SDS011;3430;51.192;6.048;2022-09-09T04:40:48;2.30;;;1.70;;
6785;SDS011;3430;51.192;6.048;2022-09-09T04:43:13;2.83;;;1.50;;
6785;SDS011;3430;51.192;6.048;2022-09-09T04:45:43;1.50;;;1.40;;
6785;SDS011;3430;51.192;6.048;2022-09-09T04:48:08;2.10;;;1.47;;
6785;SDS011;3430;51.192;6.048;2022-09-09T04:50:34;1.73;;;1.63;;
6785;SDS011;3430;51.192;6.048;2022-09-09T04:53:00;2.47;;;1.83;;
6785;SDS011;3430;51.192;6.048;2022-09-09T04:55:26;2.63;;;1.27;;
6785;SDS011;3430;51.192;6.048;2022-09-09T04:57:52;1.20;;;1.10;;
6785;SDS011;3430;51.192;6.048;2022-09-09T05:00:17;2.90;;;1.60;;
6785;SDS011;3430;51.192;6.048;2022-09-09T05:02:43;8.03;;;1.60;;
6785;SDS011;3430;51.192;6.048;2022-09-09T05:05:09;3.23;;;1.67;;
6785;SDS011;3430;51.192;6.048;2022-09-09T05:07:36;1.40;;;1.30;;
6785;SDS011;3430;51.192;6.048;2022-09-09T05:10:02;1.73;;;1.40;;
6785;SDS011;3430;51.192;6.048;2022-09-09T05:12:30;2.13;;;1.47;;
6785;SDS011;3430;51.192;6.048;2022-09-09T05:14:56;3.10;;;1.37;;
6785;SDS011;3430;51.192;6.048;2022-09-09T05:17:21;4.00;;;1.50;;
6785;SDS011;3430;51.192;6.048;2022-09-09T05:19:47;2.10;;;1.50;;
6785;SDS011;3430;51.192;6.048;2022-09-09T05:22:12;3.40;;;1.57;;
6785;SDS011;3430;51.192;6.048;2022-09-09T05:24:38;4.33;;;1.60;;
6785;SDS011;3430;51.192;6.048;2022-09-09T05:27:03;3.80;;;1.70;;
6785;SDS011;3430;51.192;6.048;2022-09-09T05:29:29;1.73;;;1.40;;
6785;SDS011;3430;51.192;6.048;2022-09-09T05:31:54;4.10;;;1.60;;
6785;SDS011;3430;51.192;6.048;2022-09-09T05:34:20;2.63;;;1.47;;
6785;SDS011;3430;51.192;6.048;2022-09-09T05:36:45;3.77;;;1.87;;
6785;SDS011;3430;51.192;6.048;2022-09-09T05:39:11;2.10;;;1.70;;
6785;SDS011;3430;51.192;6.048;2022-09-09T05:41:37;3.53;;;1.50;;
6785;SDS011;3430;51.192;6.048;2022-09-09T05:44:02;2.60;;;1.50;;
6785;SDS011;3430;51.192;6.048;2022-09-09T05:46:28;4.10;;;1.97;;
6785;SDS011;3430;51.192;6.048;2022-09-09T05:48:54;6.70;;;1.77;;
6785;SDS011;3430;51.192;6.048;2022-09-09T05:51:23;4.40;;;1.93;;
6785;SDS011;3430;51.192;6.048;2022-09-09T05:53:49;9.27;;;2.03;;
6785;SDS011;3430;51.192;6.048;2022-09-09T05:56:23;10.13;;;2.20;;
6785;SDS011;3430;51.192;6.048;2022-09-09T05:58:51;12.97;;;2.10;;
6785;SDS011;3430;51.192;6.048;2022-09-09T06:01:19;4.10;;;1.63;;
6785;SDS011;3430;51.192;6.048;2022-09-09T06:03:45;4.87;;;1.83;;
6785;SDS011;3430;51.192;6.048;2022-09-09T06:06:15;4.90;;;1.70;;
6785;SDS011;3430;51.192;6.048;2022-09-09T06:08:42;4.10;;;1.80;;
6785;SDS011;3430;51.192;6.048;2022-09-09T06:11:21;3.67;;;2.80;;
6785;SDS011;3430;51.192;6.048;2022-09-09T06:13:46;4.60;;;2.07;;
6785;SDS011;3430;51.192;6.048;2022-09-09T06:16:13;5.07;;;1.80;;
6785;SDS011;3430;51.192;6.048;2022-09-09T06:18:39;4.50;;;1.50;;
6785;SDS011;3430;51.192;6.048;2022-09-09T06:21:05;7.47;;;1.80;;
6785;SDS011;3430;51.192;6.048;2022-09-09T06:23:31;5.60;;;1.77;;
6785;SDS011;3430;51.192;6.048;2022-09-09T06:26:04;5.33;;;1.80;;
6785;SDS011;3430;51.192;6.048;2022-09-09T06:28:30;9.63;;;1.93;;
6785;SDS011;3430;51.192;6.048;2022-09-09T06:30:59;7.80;;;1.87;;
6785;SDS011;3430;51.192;6.048;2022-09-09T06:33:25;7.00;;;2.90;;
6785;SDS011;3430;51.192;6.048;2022-09-09T06:35:51;7.17;;;4.00;;
6785;SDS011;3430;51.192;6.048;2022-09-09T06:38:18;6.60;;;3.40;;
6785;SDS011;3430;51.192;6.048;2022-09-09T06:40:50;5.77;;;2.93;;
6785;SDS011;3430;51.192;6.048;2022-09-09T06:43:16;8.63;;;2.87;;
6785;SDS011;3430;51.192;6.048;2022-09-09T06:45:42;11.60;;;3.17;;
6785;SDS011;3430;51.192;6.048;2022-09-09T06:48:07;5.60;;;2.37;;
6785;SDS011;3430;51.192;6.048;2022-09-09T06:50:34;7.87;;;2.77;;
6785;SDS011;3430;51.192;6.048;2022-09-09T06:52:59;6.40;;;2.37;;
6785;SDS011;3430;51.192;6.048;2022-09-09T06:55:25;8.33;;;2.70;;
6785;SDS011;3430;51.192;6.048;2022-09-09T06:57:50;4.07;;;2.37;;
6785;SDS011;3430;51.192;6.048;2022-09-09T07:00:16;8.23;;;2.63;;
6785;SDS011;3430;51.192;6.048;2022-09-09T07:02:43;6.37;;;2.67;;
6785;SDS011;3430;51.192;6.048;2022-09-09T07:05:09;6.30;;;2.30;;
6785;SDS011;3430;51.192;6.048;2022-09-09T07:07:34;5.07;;;2.47;;
6785;SDS011;3430;51.192;6.048;2022-09-09T07:10:00;5.77;;;2.20;;
6785;SDS011;3430;51.192;6.048;2022-09-09T07:12:25;9.47;;;3.13;;
